createdAt,value
2023-02-15T00:00:39.753Z,1.54
2023-02-15T00:03:06.294Z,1.62
2023-02-15T00:05:32.826Z,1.53
2023-02-15T00:07:59.339Z,1.42
2023-02-15T00:10:27.079Z,1.71
2023-02-15T00:12:53.591Z,1.84
2023-02-15T00:17:51.340Z,1.77
2023-02-15T00:20:19.486Z,1.88
2023-02-15T00:22:46.166Z,1.91
2023-02-15T00:25:12.686Z,1.79
2023-02-15T00:27:39.208Z,1.53
2023-02-15T00:30:07.124Z,1.72
2023-02-15T00:32:33.707Z,1.64
2023-02-15T00:35:00.247Z,1.48
2023-02-15T00:37:26.751Z,1.26
2023-02-15T00:39:53.270Z,1.29
2023-02-15T00:42:19.800Z,1.21
2023-02-15T00:44:46.370Z,1.01
2023-02-15T00:47:12.909Z,0.79
2023-02-15T00:49:39.560Z,0.93
2023-02-15T00:52:06.102Z,0.95
2023-02-15T00:54:32.630Z,1.20
2023-02-15T00:56:59.172Z,1.38
2023-02-15T00:59:25.721Z,1.08
2023-02-15T01:01:52.259Z,0.88
2023-02-15T01:04:18.824Z,1.08
2023-02-15T01:06:45.403Z,1.31
2023-02-15T01:09:13.592Z,1.49
2023-02-15T01:11:40.146Z,1.59
2023-02-15T01:14:06.703Z,1.64
2023-02-15T01:16:33.347Z,1.22
2023-02-15T01:18:59.949Z,1.16
2023-02-15T01:21:27.133Z,0.92
2023-02-15T01:23:54.265Z,0.84
2023-02-15T01:26:20.926Z,0.79
2023-02-15T01:28:48.056Z,0.79
2023-02-15T01:31:18.157Z,0.60
2023-02-15T01:33:45.725Z,0.46
2023-02-15T01:36:12.467Z,0.73
2023-02-15T01:38:40.760Z,0.95
2023-02-15T01:41:24.514Z,0.84
2023-02-15T01:44:00.096Z,1.01
2023-02-15T01:46:38.363Z,0.69
2023-02-15T01:49:27.664Z,0.79
2023-02-15T01:51:54.204Z,0.65
2023-02-15T01:57:11.921Z,0.81
2023-02-15T01:59:40.699Z,0.74
2023-02-15T02:02:10.699Z,0.54
2023-02-15T02:04:44.595Z,0.47
2023-02-15T02:07:13.684Z,0.47
2023-02-15T02:09:40.282Z,0.32
2023-02-15T02:12:08.217Z,0.30
2023-02-15T02:14:35.080Z,0.29
2023-02-15T02:17:42.364Z,0.14
2023-02-15T02:20:28.927Z,0.17
2023-02-15T02:23:10.224Z,0.22
2023-02-15T02:25:51.828Z,0.16
2023-02-15T02:28:18.423Z,0.08
2023-02-15T02:31:02.632Z,0.20
2023-02-15T02:34:02.302Z,0.16
2023-02-15T02:36:43.214Z,0.13
2023-02-15T02:39:28.242Z,0.62
2023-02-15T02:42:17.016Z,0.53
2023-02-15T02:44:53.201Z,0.13
2023-02-15T02:47:28.276Z,0.02
2023-02-15T02:50:01.691Z,0.10
2023-02-15T02:55:32.456Z,0.03
2023-02-15T02:58:05.626Z,-0.06
2023-02-15T03:00:45.488Z,0.05
2023-02-15T03:03:21.309Z,0.22
2023-02-15T03:05:51.375Z,0.06
2023-02-15T03:08:23.200Z,0.12
2023-02-15T03:10:54.153Z,-0.01
2023-02-15T03:13:21.686Z,0.07
2023-02-15T03:16:08.963Z,0.14
2023-02-15T03:18:40.121Z,0.04
2023-02-15T03:21:09.264Z,-0.10
2023-02-15T03:23:38.252Z,-0.19
2023-02-15T03:26:08.518Z,-0.12
2023-02-15T03:28:42.320Z,-0.08
2023-02-15T03:31:11.154Z,-0.13
2023-02-15T03:33:45.045Z,-0.21
2023-02-15T03:36:29.751Z,-0.32
2023-02-15T03:39:03.530Z,-0.39
2023-02-15T03:41:35.316Z,-0.38
2023-02-15T03:44:12.776Z,-0.47
2023-02-15T03:47:04.222Z,-0.52
2023-02-15T03:49:46.804Z,-0.52
2023-02-15T03:52:16.885Z,-0.30
2023-02-15T03:54:44.874Z,-0.36
2023-02-15T04:00:34.309Z,-0.67
2023-02-15T04:03:15.755Z,-0.59
2023-02-15T04:05:45.925Z,-0.37
2023-02-15T04:08:14.056Z,-0.35
2023-02-15T04:10:53.246Z,-0.46
2023-02-15T04:13:32.029Z,-0.56
2023-02-15T04:16:05.855Z,-0.67
2023-02-15T04:19:02.884Z,-0.72
2023-02-15T04:21:49.972Z,-0.65
2023-02-15T04:24:35.661Z,-0.72
2023-02-15T04:27:03.527Z,-0.82
2023-02-15T04:29:30.708Z,-0.67
2023-02-15T04:32:00.614Z,-0.87
2023-02-15T04:34:27.373Z,-0.82
2023-02-15T04:39:25.199Z,-0.73
2023-02-15T04:41:51.893Z,-0.77
2023-02-15T04:44:18.552Z,-0.88
2023-02-15T04:46:45.096Z,-0.83
2023-02-15T04:49:11.654Z,-0.71
2023-02-15T04:51:38.239Z,-0.77
2023-02-15T04:54:05.045Z,-0.63
2023-02-15T04:56:32.310Z,-0.75
2023-02-15T04:58:58.840Z,-0.73
2023-02-15T05:03:57.944Z,-0.66
2023-02-15T05:06:24.536Z,-0.87
2023-02-15T05:08:51.573Z,-0.92
2023-02-15T05:11:18.126Z,-1.12
2023-02-15T05:13:44.642Z,-1.01
2023-02-15T05:16:11.358Z,-1.21
2023-02-15T05:18:37.949Z,-0.92
2023-02-15T05:21:04.970Z,-0.91
2023-02-15T05:23:31.481Z,-1.07
2023-02-15T05:26:16.910Z,-0.85
2023-02-15T05:28:43.488Z,-0.68
2023-02-15T05:31:14.186Z,-0.98
2023-02-15T05:33:41.642Z,-0.96
2023-02-15T05:36:08.661Z,-1.07
2023-02-15T05:38:38.387Z,-1.08
2023-02-15T05:41:05.695Z,-0.97
2023-02-15T05:43:32.669Z,-1.11
2023-02-15T05:45:59.362Z,-1.14
2023-02-15T05:48:27.441Z,-1.30
2023-02-15T05:53:33.678Z,-1.29
2023-02-15T05:56:01.655Z,-1.40
2023-02-15T05:58:39.105Z,-1.37
2023-02-15T06:01:24.123Z,-1.47
2023-02-15T06:03:51.119Z,-1.51
2023-02-15T06:06:17.819Z,-1.50
2023-02-15T06:08:44.823Z,-1.44
2023-02-15T06:11:11.978Z,-1.48
2023-02-15T06:13:39.131Z,-1.52
2023-02-15T06:16:07.036Z,-1.56
2023-02-15T06:18:33.733Z,-1.62
2023-02-15T06:21:00.268Z,-1.55
2023-02-15T06:23:26.843Z,-1.61
2023-02-15T06:25:53.381Z,-1.78
2023-02-15T06:28:19.910Z,-1.85
2023-02-15T06:30:47.320Z,-1.75
2023-02-15T06:33:13.957Z,-1.67
2023-02-15T06:35:40.501Z,-1.54
2023-02-15T06:38:07.046Z,-1.30
2023-02-15T06:40:33.566Z,-1.39
2023-02-15T06:43:00.131Z,-1.63
2023-02-15T06:45:26.769Z,-1.63
2023-02-15T06:47:53.373Z,-1.67
2023-02-15T06:50:19.999Z,-1.61
2023-02-15T06:52:46.524Z,-1.68
2023-02-15T06:55:13.072Z,-1.59
2023-02-15T06:57:39.625Z,-1.50
2023-02-15T07:00:07.154Z,-1.58
2023-02-15T07:02:33.706Z,-0.89
2023-02-15T07:05:00.560Z,-1.29
2023-02-15T07:07:27.328Z,-1.22
2023-02-15T07:09:53.846Z,-1.26
2023-02-15T07:12:38.964Z,-1.27
2023-02-15T07:15:07.813Z,-0.81
2023-02-15T07:17:36.308Z,-1.08
2023-02-15T07:20:10.983Z,-1.25
2023-02-15T07:22:38.266Z,-1.16
2023-02-15T07:25:09.683Z,-0.98
2023-02-15T07:27:36.617Z,-1.07
2023-02-15T07:32:35.622Z,-1.03
2023-02-15T07:35:02.377Z,-0.76
2023-02-15T07:37:29.284Z,-0.61
2023-02-15T07:39:55.820Z,-0.59
2023-02-15T07:42:23.198Z,-0.68
2023-02-15T07:44:50.288Z,-0.59
2023-02-15T07:47:17.032Z,-0.38
2023-02-15T07:49:43.538Z,-0.47
2023-02-15T07:52:10.334Z,-0.39
2023-02-15T07:54:36.845Z,-0.54
2023-02-15T07:57:03.524Z,-0.36
2023-02-15T07:59:30.063Z,-0.51
2023-02-15T08:01:57.649Z,-0.32
2023-02-15T08:04:25.347Z,-0.31
2023-02-15T08:06:55.425Z,-0.26
2023-02-15T08:09:22.670Z,-0.33
2023-02-15T08:11:49.858Z,-0.03
2023-02-15T08:14:23.247Z,0.34
2023-02-15T08:16:52.326Z,0.37
2023-02-15T08:19:20.575Z,0.26
2023-02-15T08:24:25.840Z,0.24
2023-02-15T08:26:53.333Z,0.19
2023-02-15T08:29:23.483Z,0.24
2023-02-15T08:31:50.908Z,0.19
2023-02-15T08:34:20.678Z,0.46
2023-02-15T08:36:47.404Z,0.16
2023-02-15T08:39:15.508Z,0.21
2023-02-15T08:41:47.248Z,0.36
2023-02-15T08:44:16.297Z,0.51
2023-02-15T08:46:44.882Z,0.40
2023-02-15T08:49:16.498Z,0.56
2023-02-15T08:51:43.370Z,0.46
2023-02-15T08:54:13.771Z,0.42
2023-02-15T08:56:42.518Z,0.68
2023-02-15T08:59:21.230Z,0.72
2023-02-15T09:01:49.647Z,0.73
2023-02-15T09:06:56.147Z,0.95
2023-02-15T09:09:23.129Z,1.02
2023-02-15T09:11:56.809Z,1.08
2023-02-15T09:14:27.802Z,1.03
2023-02-15T09:16:54.686Z,1.01
2023-02-15T09:19:25.497Z,1.39
2023-02-15T09:21:52.636Z,1.60
2023-02-15T09:26:51.078Z,2.17
2023-02-15T09:29:19.059Z,2.04
2023-02-15T09:31:49.945Z,2.44
2023-02-15T09:34:19.466Z,2.53
2023-02-15T09:39:25.988Z,2.70
2023-02-15T09:45:13.288Z,3.06
2023-02-15T09:48:06.495Z,2.89
2023-02-15T09:51:20.416Z,3.49
2023-02-15T09:53:57.431Z,3.37
2023-02-15T09:56:38.624Z,3.81
2023-02-15T09:59:15.903Z,3.67
2023-02-15T10:02:17.330Z,4.10
2023-02-15T10:04:52.808Z,4.10
2023-02-15T10:07:37.490Z,4.10
2023-02-15T10:10:16.263Z,4.74
2023-02-15T10:12:57.042Z,5.06
2023-02-15T10:15:28.692Z,5.02
2023-02-15T10:18:04.377Z,4.93
2023-02-15T10:20:37.316Z,4.42
2023-02-15T10:23:12.740Z,4.15
2023-02-15T10:25:57.311Z,4.04
2023-02-15T10:31:25.072Z,4.37
2023-02-15T10:34:36.950Z,4.47
2023-02-15T10:37:30.645Z,4.47
2023-02-15T10:40:11.233Z,4.48
2023-02-15T10:42:49.700Z,4.60
2023-02-15T10:45:40.744Z,4.86
2023-02-15T10:48:32.337Z,5.00
2023-02-15T10:51:01.534Z,5.09
2023-02-15T10:53:30.835Z,5.26
2023-02-15T10:56:21.333Z,5.39
2023-02-15T10:59:02.550Z,5.04
2023-02-15T11:01:47.901Z,5.13
2023-02-15T11:04:48.408Z,5.46
2023-02-15T11:07:25.897Z,5.78
2023-02-15T11:10:08.625Z,6.21
2023-02-15T11:12:35.462Z,6.34
2023-02-15T11:15:25.871Z,6.41
2023-02-15T11:18:12.928Z,6.83
2023-02-15T11:20:47.235Z,6.98
2023-02-15T11:23:17.469Z,7.12
2023-02-15T11:25:47.510Z,7.31
2023-02-15T11:28:50.465Z,7.73
2023-02-15T11:31:27.455Z,7.60
2023-02-15T11:33:59.864Z,7.81
2023-02-15T11:36:32.885Z,7.86
2023-02-15T11:39:05.025Z,8.00
2023-02-15T11:41:38.528Z,7.96
2023-02-15T11:44:16.846Z,8.35
2023-02-15T11:46:43.552Z,8.24
2023-02-15T11:49:28.037Z,8.33
2023-02-15T11:51:56.510Z,7.99
2023-02-15T11:54:28.993Z,8.30
2023-02-15T11:59:38.693Z,8.32
2023-02-15T12:02:23.954Z,8.39
2023-02-15T12:05:16.959Z,8.56
2023-02-15T12:07:49.666Z,8.58
2023-02-15T12:24:23.390Z,9.13
2023-02-15T12:27:01.758Z,9.48
2023-02-15T12:29:32.460Z,9.44
2023-02-15T12:32:00.100Z,9.67
2023-02-15T12:34:32.080Z,9.77
2023-02-15T12:37:03.332Z,9.59
2023-02-15T12:39:32.557Z,9.74
2023-02-15T12:42:17.144Z,9.57
2023-02-15T12:44:57.407Z,9.87
2023-02-15T12:47:29.017Z,9.72
2023-02-15T12:50:20.204Z,9.92
2023-02-15T12:52:49.981Z,10.01
2023-02-15T12:55:30.646Z,10.53
2023-02-15T12:58:18.437Z,10.53
2023-02-15T13:00:46.904Z,10.36
2023-02-15T13:03:22.740Z,10.46
2023-02-15T13:05:53.083Z,9.98
2023-02-15T13:08:31.562Z,10.23
2023-02-15T13:11:08.272Z,10.49
2023-02-15T13:13:37.376Z,10.75
2023-02-15T13:18:46.377Z,10.97
2023-02-15T13:21:19.771Z,10.73
2023-02-15T13:23:53.597Z,11.44
2023-02-15T13:26:24.583Z,11.53
2023-02-15T13:28:56.130Z,11.46
2023-02-15T13:31:26.312Z,11.68
2023-02-15T13:34:03.785Z,11.76
2023-02-15T13:36:42.571Z,11.87
2023-02-15T13:39:28.615Z,11.75
2023-02-15T13:42:04.081Z,11.78
2023-02-15T13:47:48.346Z,11.60
2023-02-15T13:50:52.802Z,11.30
2023-02-15T13:53:42.917Z,10.95
2023-02-15T13:56:18.039Z,11.05
2023-02-15T13:59:16.898Z,10.56
2023-02-15T14:01:49.297Z,10.68
2023-02-15T14:04:24.798Z,10.61
2023-02-15T14:07:04.362Z,10.49
2023-02-15T14:10:13.241Z,10.38
2023-02-15T14:12:42.537Z,10.43
2023-02-15T14:15:28.014Z,10.50
2023-02-15T14:18:25.599Z,10.66
2023-02-15T14:21:31.716Z,10.63
2023-02-15T14:24:17.776Z,10.52
2023-02-15T14:26:55.828Z,10.52
2023-02-15T14:29:55.822Z,10.46
2023-02-15T14:32:34.763Z,10.39
2023-02-15T14:35:03.499Z,10.51
2023-02-15T14:37:39.114Z,10.47
2023-02-15T14:41:00.312Z,10.28
2023-02-15T14:43:46.084Z,10.31
2023-02-15T14:46:42.993Z,10.25
2023-02-15T14:49:15.071Z,10.12
2023-02-15T14:51:41.590Z,10.13
2023-02-15T14:54:08.922Z,10.05
2023-02-15T14:56:36.062Z,10.05
2023-02-15T14:59:14.977Z,10.16
2023-02-15T15:01:42.522Z,10.32
2023-02-15T15:04:14.639Z,10.39
2023-02-15T15:06:45.033Z,10.26
2023-02-15T15:09:28.591Z,10.23
2023-02-15T15:12:14.299Z,10.17
2023-02-15T15:14:44.274Z,10.14
2023-02-15T15:17:13.071Z,10.00
2023-02-15T15:19:51.970Z,9.89
2023-02-15T15:22:19.926Z,9.91
2023-02-15T15:24:48.300Z,9.89
2023-02-15T15:27:46.650Z,9.83
2023-02-15T15:30:16.144Z,9.77
2023-02-15T15:32:58.087Z,9.76
2023-02-15T15:39:10.918Z,9.62
2023-02-15T15:41:47.965Z,9.64
2023-02-15T15:44:36.172Z,9.49
2023-02-15T15:47:24.893Z,9.35
2023-02-15T15:49:56.920Z,9.28
2023-02-15T15:55:05.581Z,9.21
2023-02-15T15:57:40.369Z,9.07
2023-02-15T16:00:27.126Z,8.92
2023-02-15T16:02:54.854Z,8.85
2023-02-15T16:07:55.195Z,8.69
2023-02-15T16:10:23.588Z,8.63
2023-02-15T16:12:51.613Z,8.56
2023-02-15T16:15:24.598Z,8.46
2023-02-15T16:20:32.499Z,8.26
2023-02-15T16:23:34.113Z,8.10
2023-02-15T16:26:19.304Z,8.33
2023-02-15T16:28:53.897Z,8.03
2023-02-15T16:31:23.404Z,7.98
2023-02-15T16:33:54.048Z,8.39
2023-02-15T16:36:26.371Z,8.14
2023-02-15T16:41:29.122Z,7.59
2023-02-15T16:44:00.237Z,7.36
2023-02-15T16:46:32.506Z,7.18
2023-02-15T16:49:03.377Z,7.02
2023-02-15T16:51:32.439Z,6.78
2023-02-15T16:54:08.171Z,6.74
2023-02-15T16:56:35.805Z,6.61
2023-02-15T16:59:02.957Z,6.43
2023-02-15T17:01:32.018Z,6.36
2023-02-15T17:07:14.937Z,6.29
2023-02-15T17:09:51.592Z,6.41
2023-02-15T17:12:47.311Z,6.40
2023-02-15T17:15:38.199Z,6.42
2023-02-15T17:18:20.563Z,6.33
2023-02-15T17:20:49.858Z,6.33
2023-02-15T17:23:54.530Z,6.38
2023-02-15T17:26:24.927Z,6.27
2023-02-15T17:28:54.976Z,6.17
2023-02-15T17:31:24.919Z,6.01
2023-02-15T17:33:54.850Z,5.90
2023-02-15T17:36:23.859Z,5.86
2023-02-15T17:39:02.447Z,5.68
2023-02-15T17:41:38.370Z,5.63
2023-02-15T17:44:05.653Z,5.41
2023-02-15T17:46:36.947Z,5.31
2023-02-15T17:49:04.605Z,5.32
2023-02-15T17:51:32.367Z,5.19
2023-02-15T17:54:17.380Z,5.13
2023-02-15T17:56:44.612Z,5.19
2023-02-15T17:59:12.560Z,5.22
2023-02-15T18:02:05.063Z,5.21
2023-02-15T18:04:53.838Z,4.99
2023-02-15T18:07:39.130Z,4.72
2023-02-15T18:13:11.911Z,4.51
2023-02-15T18:15:38.692Z,4.57
2023-02-15T18:18:05.253Z,4.51
2023-02-15T18:20:37.054Z,4.48
2023-02-15T18:23:03.663Z,4.39
2023-02-15T18:25:30.398Z,4.38
2023-02-15T18:27:57.151Z,4.43
2023-02-15T18:30:26.755Z,4.52
2023-02-15T18:35:31.573Z,4.49
2023-02-15T18:38:00.614Z,4.45
2023-02-15T18:40:28.927Z,4.12
2023-02-15T18:42:57.191Z,4.48
2023-02-15T18:45:32.526Z,4.17
2023-02-15T18:47:59.402Z,4.14
2023-02-15T18:50:31.123Z,4.08
2023-02-15T18:52:57.957Z,3.91
2023-02-15T18:55:28.650Z,3.85
2023-02-15T19:00:35.114Z,4.30
2023-02-15T19:03:02.711Z,4.57
2023-02-15T19:05:31.716Z,4.78
2023-02-15T19:08:00.719Z,4.92
2023-02-15T19:10:29.803Z,4.95
2023-02-15T19:12:56.739Z,4.94
2023-02-15T19:15:26.384Z,4.98
2023-02-15T19:17:54.106Z,5.25
2023-02-15T19:20:27.213Z,4.60
2023-02-15T19:22:56.519Z,4.48
2023-02-15T19:25:27.273Z,4.37
2023-02-15T19:27:54.868Z,4.17
2023-02-15T19:30:27.134Z,4.08
2023-02-15T19:32:53.761Z,4.02
2023-02-15T19:37:59.555Z,4.45
2023-02-15T19:40:31.905Z,4.42
2023-02-15T19:42:58.971Z,4.50
2023-02-15T19:45:28.802Z,4.59
2023-02-15T19:47:55.721Z,4.68
2023-02-15T19:50:28.221Z,4.63
2023-02-15T19:52:55.023Z,4.68
2023-02-15T19:55:26.479Z,4.66
2023-02-15T19:57:54.166Z,4.67
2023-02-15T20:00:32.066Z,4.63
2023-02-15T20:05:34.210Z,4.66
2023-02-15T20:10:41.482Z,4.63
2023-02-15T20:13:13.518Z,4.38
2023-02-15T20:15:41.183Z,3.97
2023-02-15T20:18:08.187Z,3.79
2023-02-15T20:20:45.794Z,3.68
2023-02-15T20:23:22.767Z,3.46
2023-02-15T20:25:50.511Z,3.77
2023-02-15T20:28:24.949Z,3.96
2023-02-15T20:30:52.031Z,4.16
2023-02-15T20:33:20.178Z,4.26
2023-02-15T20:35:47.616Z,4.33
2023-02-15T20:38:27.116Z,4.31
2023-02-15T20:41:15.258Z,4.21
2023-02-15T20:43:42.064Z,4.13
2023-02-15T20:46:08.903Z,3.91
2023-02-15T20:48:35.677Z,4.17
2023-02-15T20:51:02.990Z,4.18
2023-02-15T20:53:30.036Z,4.29
2023-02-15T20:55:56.909Z,4.36
2023-02-15T20:58:26.313Z,4.40
2023-02-15T21:00:54.563Z,4.24
2023-02-15T21:03:24.626Z,4.28
2023-02-15T21:05:51.172Z,4.33
2023-02-15T21:08:21.378Z,4.30
2023-02-15T21:10:49.862Z,4.11
2023-02-15T21:16:01.860Z,3.84
2023-02-15T21:18:31.922Z,3.49
2023-02-15T21:21:01.495Z,3.50
2023-02-15T21:23:38.052Z,3.34
2023-02-15T21:26:05.678Z,3.52
2023-02-15T21:28:32.287Z,3.49
2023-02-15T21:30:59.435Z,3.27
2023-02-15T21:33:26.754Z,3.34
2023-02-15T21:35:57.430Z,3.35
2023-02-15T21:38:29.207Z,3.15
2023-02-15T21:41:15.922Z,3.30
2023-02-15T21:44:00.964Z,2.95
2023-02-15T21:46:42.525Z,2.82
2023-02-15T21:49:10.836Z,3.05
2023-02-15T21:51:55.930Z,2.92
2023-02-15T21:54:22.550Z,3.09
2023-02-15T21:56:51.070Z,2.92
2023-02-15T21:59:18.427Z,2.77
2023-02-15T22:04:29.622Z,2.60
2023-02-15T22:06:57.089Z,2.55
2023-02-15T22:09:25.604Z,2.60
2023-02-15T22:11:53.257Z,2.82
2023-02-15T22:14:25.575Z,3.07
2023-02-15T22:16:52.119Z,3.12
2023-02-15T22:19:19.026Z,3.48
2023-02-15T22:21:45.619Z,3.38
2023-02-15T22:24:12.202Z,3.46
2023-02-15T22:26:38.774Z,3.35
2023-02-15T22:29:05.913Z,3.11
2023-02-15T22:31:32.494Z,2.78
2023-02-15T22:33:59.185Z,2.40
2023-02-15T22:36:31.038Z,2.60
2023-02-15T22:38:58.210Z,2.39
2023-02-15T22:41:28.977Z,2.30
2023-02-15T22:43:56.908Z,2.19
2023-02-15T22:46:25.253Z,2.09
2023-02-15T22:48:52.752Z,2.19
2023-02-15T22:51:22.425Z,2.40
2023-02-15T22:53:53.387Z,2.15
2023-02-15T22:56:45.190Z,2.01
2023-02-15T23:04:31.473Z,1.85
2023-02-15T23:07:00.698Z,1.93
2023-02-15T23:09:27.285Z,2.22
2023-02-15T23:11:54.521Z,2.14
2023-02-15T23:14:35.895Z,2.29
2023-02-15T23:17:02.712Z,2.24
2023-02-15T23:19:29.296Z,2.04
2023-02-15T23:21:55.817Z,1.98
2023-02-15T23:24:28.293Z,1.90
2023-02-15T23:29:46.916Z,1.76
2023-02-15T23:32:14.616Z,1.62
2023-02-15T23:34:42.471Z,1.52
2023-02-15T23:37:12.989Z,1.79
2023-02-15T23:39:58.346Z,1.60
2023-02-15T23:42:28.956Z,1.71
2023-02-15T23:44:55.963Z,1.74
2023-02-15T23:47:45.715Z,1.59
2023-02-15T23:50:24.029Z,1.52
2023-02-15T23:52:51.835Z,1.64
2023-02-15T23:55:19.536Z,1.51
2023-02-15T23:57:46.998Z,1.49
